Time;durP1;ratioP1;P1;durP2;ratioP2;P2;SDS_P1;SDS_P2;PMS_P1;PMS_P2;Temp;Humidity;BMP_temperature;BMP_pressure;BME280_temperature;BME280_humidity;BME280_pressure;Samples;Min_cycle;Max_cycle;Signal;HPM_P1;HPM_P2
2021/03/31 00:00:30;;;;;;;6.85;4.53;;;8.80;86.80;;;;;;5044563;28;20579;-72
2021/03/31 00:02:57;;;;;;;7.13;4.15;;;8.80;87.20;;;;;;5046091;28;20197;-71
2021/03/31 00:05:24;;;;;;;6.97;4.20;;;8.70;87.60;;;;;;5045995;28;20213;-72
2021/03/31 00:07:50;;;;;;;5.88;4.25;;;8.60;87.50;;;;;;5046408;28;20216;-71
2021/03/31 00:10:27;;;;;;;4.72;4.30;;;8.60;88.10;;;;;;5045368;28;20205;-71
2021/03/31 00:12:53;;;;;;;6.50;4.68;;;8.60;87.60;;;;;;5047253;28;20221;-71
2021/03/31 00:15:21;;;;;;;5.55;3.90;;;8.60;87.70;;;;;;5046655;28;20204;-71
2021/03/31 00:17:47;;;;;;;5.07;4.25;;;8.50;87.70;;;;;;5047074;28;20209;-71
2021/03/31 00:20:15;;;;;;;5.53;4.00;;;8.50;87.80;;;;;;5046071;28;20213;-71
2021/03/31 00:22:42;;;;;;;7.00;4.78;;;8.50;88.00;;;;;;5047065;28;20311;-71
2021/03/31 00:25:10;;;;;;;8.50;5.07;;;8.50;88.30;;;;;;5046240;28;20213;-71
2021/03/31 00:27:37;;;;;;;5.63;4.55;;;8.50;88.20;;;;;;5046652;28;20228;-71
2021/03/31 00:30:06;;;;;;;5.30;4.55;;;8.50;88.30;;;;;;5045998;28;20604;-71
2021/03/31 00:32:32;;;;;;;6.78;4.45;;;8.50;87.90;;;;;;5045963;28;20232;-71
2021/03/31 00:34:58;;;;;;;8.95;5.07;;;8.40;87.80;;;;;;5046885;28;20573;-71
2021/03/31 00:37:24;;;;;;;5.75;4.60;;;8.40;88.10;;;;;;5046203;28;20211;-71
2021/03/31 00:39:50;;;;;;;5.50;4.90;;;8.40;88.30;;;;;;5046295;28;20201;-71
2021/03/31 00:42:17;;;;;;;10.00;5.45;;;8.40;88.30;;;;;;5046512;28;20228;-72
2021/03/31 00:44:44;;;;;;;6.15;5.20;;;8.40;88.50;;;;;;5048576;28;20213;-71
2021/03/31 00:47:10;;;;;;;8.50;5.55;;;8.40;88.40;;;;;;5136202;22;20285;-70
2021/03/31 00:49:36;;;;;;;6.10;5.07;;;8.40;88.20;;;;;;5069335;28;20216;-71
2021/03/31 00:52:03;;;;;;;7.75;5.57;;;8.30;88.20;;;;;;5069677;28;20224;-71
2021/03/31 00:54:30;;;;;;;6.85;5.00;;;8.30;88.70;;;;;;5069818;28;20582;-70
2021/03/31 00:56:56;;;;;;;7.75;4.80;;;8.30;89.90;;;;;;5069754;28;20201;-71
2021/03/31 00:59:22;;;;;;;7.85;4.82;;;8.20;89.80;;;;;;5069691;28;20208;-71
2021/03/31 01:01:50;;;;;;;6.05;4.53;;;8.20;89.50;;;;;;5070084;28;20860;-71
2021/03/31 01:04:17;;;;;;;6.22;4.88;;;8.20;89.40;;;;;;5070218;28;20200;-71
2021/03/31 01:06:43;;;;;;;6.32;5.30;;;8.20;89.80;;;;;;5070272;28;20274;-71
2021/03/31 01:09:09;;;;;;;5.95;5.22;;;8.10;89.80;;;;;;5069406;28;20220;-71
2021/03/31 01:11:47;;;;;;;5.75;4.95;;;8.10;90.20;;;;;;5069680;28;20224;-70
2021/03/31 01:14:23;;;;;;;10.75;5.93;;;8.00;90.10;;;;;;5069942;28;20254;-71
2021/03/31 01:16:54;;;;;;;9.20;4.68;;;8.00;90.20;;;;;;5070017;28;20196;-71
2021/03/31 01:19:40;;;;;;;7.50;4.93;;;8.00;90.30;;;;;;5069059;28;20652;-71
2021/03/31 01:22:48;;;;;;;6.70;4.93;;;7.90;90.40;;;;;;5069844;28;20606;-70
2021/03/31 01:25:18;;;;;;;6.30;4.78;;;7.80;90.50;;;;;;5069448;28;20204;-70
2021/03/31 01:27:56;;;;;;;7.55;5.15;;;7.80;90.60;;;;;;5069781;28;20204;-70
2021/03/31 01:30:33;;;;;;;8.23;5.40;;;7.80;90.80;;;;;;5068906;28;20196;-71
2021/03/31 01:33:23;;;;;;;6.45;5.13;;;7.80;90.60;;;;;;5069632;28;20196;-71
2021/03/31 01:35:52;;;;;;;7.65;5.32;;;7.80;90.70;;;;;;5069605;28;20204;-71
2021/03/31 01:38:22;;;;;;;6.30;5.20;;;7.80;91.00;;;;;;5068633;28;20207;-71
2021/03/31 01:40:50;;;;;;;8.35;5.22;;;7.70;90.70;;;;;;5069361;28;20236;-70
2021/03/31 01:43:21;;;;;;;9.23;5.65;;;7.70;90.80;;;;;;5068909;28;20208;-71
2021/03/31 01:45:49;;;;;;;7.57;5.90;;;7.60;90.90;;;;;;5069674;28;20199;-71
2021/03/31 01:48:17;;;;;;;5.47;4.65;;;7.60;91.00;;;;;;5068861;28;20212;-70
2021/03/31 01:50:47;;;;;;;9.70;5.45;;;7.50;91.20;;;;;;5069094;28;20228;-71
2021/03/31 01:53:16;;;;;;;8.35;5.00;;;7.50;91.10;;;;;;5069129;28;20201;-70
2021/03/31 01:55:43;;;;;;;8.02;6.00;;;7.50;91.20;;;;;;5069131;28;20282;-71
2021/03/31 01:58:10;;;;;;;6.38;5.22;;;7.40;91.30;;;;;;5069241;28;20984;-71
2021/03/31 02:00:37;;;;;;;6.25;5.15;;;7.30;91.40;;;;;;5068781;28;20220;-71
2021/03/31 02:03:04;;;;;;;6.82;5.35;;;7.20;91.40;;;;;;5069313;28;20239;-70
2021/03/31 02:05:32;;;;;;;7.35;5.70;;;7.10;91.70;;;;;;5068848;28;20204;-71
2021/03/31 02:07:59;;;;;;;8.52;5.00;;;7.10;92.00;;;;;;5068764;28;20196;-70
2021/03/31 02:10:27;;;;;;;6.03;5.18;;;7.10;91.80;;;;;;5068366;28;20196;-71
2021/03/31 02:12:55;;;;;;;10.00;5.57;;;7.00;92.10;;;;;;5069029;28;20211;-71
2021/03/31 02:15:24;;;;;;;8.43;5.63;;;7.00;92.00;;;;;;5068736;28;20212;-70
2021/03/31 02:17:51;;;;;;;8.30;5.43;;;7.00;92.30;;;;;;5069123;28;20243;-70
2021/03/31 02:20:20;;;;;;;6.68;5.10;;;7.00;92.30;;;;;;5068184;28;20196;-71
2021/03/31 02:22:47;;;;;;;6.95;6.18;;;6.90;92.50;;;;;;5068979;28;20261;-70
2021/03/31 02:25:15;;;;;;;7.95;5.35;;;6.90;92.40;;;;;;5068776;28;20209;-71
2021/03/31 02:27:44;;;;;;;7.82;5.45;;;6.90;92.60;;;;;;5068889;28;20204;-71
2021/03/31 02:30:12;;;;;;;6.65;4.93;;;6.80;92.50;;;;;;5068237;28;20223;-70
2021/03/31 02:32:40;;;;;;;6.75;4.90;;;6.80;92.50;;;;;;5068853;28;20211;-71
2021/03/31 02:35:08;;;;;;;8.55;6.38;;;6.70;92.80;;;;;;5068762;28;20699;-72
2021/03/31 02:37:36;;;;;;;8.50;6.00;;;6.70;92.80;;;;;;5067998;28;20558;-72
2021/03/31 02:40:05;;;;;;;6.68;5.40;;;6.70;92.80;;;;;;5067593;28;20305;-72
2021/03/31 02:42:31;;;;;;;7.45;5.55;;;6.70;92.90;;;;;;5068365;28;20232;-72
2021/03/31 02:45:00;;;;;;;7.97;5.80;;;6.70;93.20;;;;;;5068881;28;20196;-73
2021/03/31 02:47:29;;;;;;;6.65;5.35;;;6.60;93.30;;;;;;5068892;28;20281;-72
2021/03/31 02:49:58;;;;;;;10.52;5.78;;;6.60;93.10;;;;;;5068117;28;20266;-72
2021/03/31 02:52:26;;;;;;;5.93;5.03;;;6.60;93.10;;;;;;5068143;28;20239;-72
2021/03/31 02:54:54;;;;;;;11.52;6.07;;;6.70;92.80;;;;;;5070581;28;20227;-72
2021/03/31 02:57:22;;;;;;;7.43;5.60;;;6.70;92.90;;;;;;5072507;28;20200;-72
2021/03/31 02:59:49;;;;;;;10.80;5.60;;;6.60;93.20;;;;;;5072157;28;20197;-72
2021/03/31 03:02:17;;;;;;;9.90;5.63;;;6.60;93.20;;;;;;5072165;28;20227;-72
2021/03/31 03:04:46;;;;;;;8.98;6.00;;;6.60;93.30;;;;;;5072359;28;20227;-72
2021/03/31 03:07:13;;;;;;;6.22;5.57;;;6.60;93.60;;;;;;5072368;28;20667;-72
2021/03/31 03:09:40;;;;;;;7.53;6.35;;;6.50;93.50;;;;;;5071550;28;20220;-72
2021/03/31 03:12:08;;;;;;;9.75;5.93;;;6.50;93.70;;;;;;5072255;28;20228;-72
2021/03/31 03:14:35;;;;;;;8.40;6.65;;;6.50;94.10;;;;;;5072017;28;20208;-72
2021/03/31 03:17:02;;;;;;;6.82;5.93;;;6.40;94.10;;;;;;5072210;28;20733;-72
2021/03/31 03:19:29;;;;;;;7.35;5.13;;;6.40;94.00;;;;;;5071566;28;20726;-72
2021/03/31 03:21:56;;;;;;;8.10;6.10;;;6.40;94.10;;;;;;5071756;28;20220;-72
2021/03/31 03:24:24;;;;;;;7.32;5.20;;;6.40;94.20;;;;;;5071804;28;20230;-71
2021/03/31 03:26:51;;;;;;;7.55;5.90;;;6.40;94.20;;;;;;5072214;28;20254;-70
2021/03/31 03:29:17;;;;;;;8.80;5.85;;;6.30;94.00;;;;;;5071251;28;20223;-71
2021/03/31 03:31:44;;;;;;;8.10;6.07;;;6.30;94.00;;;;;;5071967;28;20251;-72
2021/03/31 03:34:11;;;;;;;8.32;6.15;;;6.20;94.10;;;;;;5071709;28;20655;-72
2021/03/31 03:36:41;;;;;;;8.07;6.30;;;6.20;94.20;;;;;;5071582;28;20212;-71
2021/03/31 03:39:08;;;;;;;7.88;5.90;;;6.10;94.20;;;;;;5071377;28;20210;-71
2021/03/31 03:41:34;;;;;;;7.20;5.03;;;6.10;94.20;;;;;;5078831;28;20223;-72
2021/03/31 03:44:00;;;;;;;7.55;5.28;;;6.10;94.30;;;;;;5081349;28;20256;-72
2021/03/31 03:46:30;;;;;;;8.93;5.30;;;6.10;94.30;;;;;;5081930;28;20220;-72
2021/03/31 03:48:57;;;;;;;9.52;6.00;;;6.10;94.30;;;;;;5080026;28;20213;-71
2021/03/31 03:51:24;;;;;;;6.72;5.50;;;6.00;94.40;;;;;;5081222;28;20234;-72
2021/03/31 03:53:52;;;;;;;8.57;6.32;;;6.00;94.50;;;;;;5082318;28;20667;-72
2021/03/31 03:56:18;;;;;;;10.00;6.03;;;6.00;94.70;;;;;;5077969;28;20192;-72
2021/03/31 03:58:44;;;;;;;8.07;5.70;;;6.00;94.90;;;;;;5079271;28;20207;-71
2021/03/31 04:01:10;;;;;;;12.02;5.75;;;5.90;95.00;;;;;;5080884;28;20220;-71
2021/03/31 04:03:37;;;;;;;7.38;5.75;;;5.90;95.10;;;;;;5075771;28;20686;-72
2021/03/31 04:06:03;;;;;;;11.63;6.25;;;5.90;95.10;;;;;;5071799;28;20324;-71
2021/03/31 04:08:30;;;;;;;7.57;5.70;;;5.90;95.20;;;;;;5088555;28;20642;-71
2021/03/31 04:10:58;;;;;;;9.63;6.20;;;5.90;95.20;;;;;;5089576;28;20227;-71
2021/03/31 04:13:25;;;;;;;7.93;5.63;;;5.90;95.20;;;;;;5076676;28;20215;-73
2021/03/31 04:15:56;;;;;;;10.30;6.78;;;5.90;95.30;;;;;;5070310;28;20215;-74
2021/03/31 04:18:22;;;;;;;12.02;6.28;;;5.90;95.40;;;;;;5073560;28;20211;-74
2021/03/31 04:20:51;;;;;;;8.90;6.20;;;5.90;95.50;;;;;;5076482;28;20223;-74
2021/03/31 04:23:18;;;;;;;7.93;5.82;;;5.90;95.50;;;;;;5090972;28;20200;-74
2021/03/31 04:25:44;;;;;;;7.38;5.50;;;5.90;95.50;;;;;;5091007;28;20452;-73
2021/03/31 04:28:12;;;;;;;9.10;6.50;;;5.90;95.80;;;;;;5090591;28;20203;-73
2021/03/31 04:30:40;;;;;;;7.55;5.63;;;5.80;95.90;;;;;;5087225;28;20284;-72
2021/03/31 04:33:10;;;;;;;10.82;5.63;;;5.90;97.20;;;;;;5088010;28;20203;-73
2021/03/31 04:35:36;;;;;;;6.47;5.68;;;6.00;98.50;;;;;;5087922;28;20200;-72
2021/03/31 04:38:10;;;;;;;9.48;5.95;;;6.00;97.80;;;;;;5088031;28;20200;-73
2021/03/31 04:40:52;;;;;;;9.30;5.97;;;6.00;96.70;;;;;;5087432;28;20220;-72
2021/03/31 04:43:19;;;;;;;9.20;6.10;;;5.90;96.50;;;;;;5089346;28;20918;-73
2021/03/31 04:45:45;;;;;;;9.95;5.97;;;5.90;96.50;;;;;;5090566;28;20203;-73
2021/03/31 04:48:12;;;;;;;8.82;6.28;;;5.90;96.50;;;;;;5090137;28;20211;-73
2021/03/31 04:50:38;;;;;;;11.57;6.57;;;5.90;96.50;;;;;;5089751;28;20231;-73
2021/03/31 04:53:05;;;;;;;8.80;5.88;;;5.90;96.50;;;;;;5090531;28;20574;-73
2021/03/31 04:55:31;;;;;;;7.55;6.35;;;5.90;96.40;;;;;;5089937;28;20694;-72
2021/03/31 04:57:57;;;;;;;10.05;6.13;;;5.80;96.40;;;;;;5090370;28;20211;-72
2021/03/31 05:00:25;;;;;;;10.48;5.90;;;5.80;96.50;;;;;;5089372;28;20200;-73
2021/03/31 05:02:51;;;;;;;11.63;6.20;;;5.80;96.60;;;;;;5090455;28;20211;-73
2021/03/31 05:05:17;;;;;;;9.20;6.45;;;5.80;96.60;;;;;;5089909;28;20667;-73
2021/03/31 05:07:44;;;;;;;9.15;6.35;;;5.80;96.70;;;;;;5090254;28;20204;-72
2021/03/31 05:10:11;;;;;;;10.35;6.65;;;5.80;96.60;;;;;;5089631;28;20314;-72
2021/03/31 05:12:37;;;;;;;8.52;6.55;;;5.80;96.60;;;;;;5089663;28;20287;-72
2021/03/31 05:15:04;;;;;;;8.57;6.50;;;5.80;96.80;;;;;;5089748;28;20214;-72
2021/03/31 05:17:31;;;;;;;10.93;6.07;;;5.80;96.80;;;;;;5088979;28;20210;-73
2021/03/31 05:19:57;;;;;;;13.00;6.65;;;5.90;96.90;;;;;;5089217;28;20727;-72
2021/03/31 05:22:23;;;;;;;15.18;6.82;;;5.90;96.90;;;;;;5089451;28;20231;-72
2021/03/31 05:24:50;;;;;;;9.45;6.30;;;5.90;96.80;;;;;;5089799;28;20204;-72
2021/03/31 05:27:16;;;;;;;11.60;6.55;;;5.90;96.70;;;;;;5089960;28;20200;-72
2021/03/31 05:29:42;;;;;;;10.60;6.32;;;6.00;96.80;;;;;;5088969;28;20227;-72
2021/03/31 05:32:09;;;;;;;9.50;6.55;;;6.00;96.80;;;;;;5089597;28;20235;-73
2021/03/31 05:34:36;;;;;;;12.80;6.18;;;6.00;96.70;;;;;;5089126;28;20206;-73
2021/03/31 05:37:02;;;;;;;7.80;6.07;;;6.00;96.80;;;;;;5089725;28;20211;-73
2021/03/31 05:39:29;;;;;;;10.50;5.55;;;6.00;96.90;;;;;;5088929;28;20208;-73
2021/03/31 05:41:55;;;;;;;7.15;5.90;;;6.00;96.90;;;;;;5089296;28;20223;-73
2021/03/31 05:44:22;;;;;;;8.35;5.60;;;6.10;97.00;;;;;;5079198;28;20196;-73
2021/03/31 05:46:50;;;;;;;10.82;5.93;;;6.10;97.10;;;;;;5069060;28;20228;-73
2021/03/31 05:49:16;;;;;;;7.13;5.90;;;6.20;97.20;;;;;;5068088;28;20257;-73
2021/03/31 05:51:44;;;;;;;9.02;6.50;;;6.20;97.20;;;;;;5068766;28;20223;-73
2021/03/31 05:54:10;;;;;;;9.35;5.72;;;6.20;97.20;;;;;;5069380;28;20564;-74
2021/03/31 05:56:40;;;;;;;7.85;5.45;;;6.30;97.10;;;;;;5079494;28;20199;-73
2021/03/31 05:59:07;;;;;;;9.98;5.95;;;6.40;97.10;;;;;;5078485;28;20287;-73
2021/03/31 06:01:34;;;;;;;8.40;6.00;;;6.40;97.20;;;;;;5082747;28;20246;-72
2021/03/31 06:04:01;;;;;;;8.10;6.10;;;6.50;97.20;;;;;;5086902;28;20237;-72
2021/03/31 06:06:28;;;;;;;8.35;6.18;;;6.60;97.10;;;;;;5071376;28;20200;-72
2021/03/31 06:08:56;;;;;;;9.75;6.55;;;6.70;97.10;;;;;;5070520;28;20223;-72
2021/03/31 06:11:23;;;;;;;7.07;5.50;;;6.70;97.10;;;;;;5068371;28;20431;-73
2021/03/31 06:13:50;;;;;;;9.38;6.15;;;6.80;97.20;;;;;;5068784;28;20204;-72
2021/03/31 06:16:26;;;;;;;9.77;5.75;;;6.90;97.10;;;;;;5084773;28;20233;-73
2021/03/31 06:18:53;;;;;;;7.65;6.05;;;6.90;97.10;;;;;;5080516;28;20188;-72
2021/03/31 06:21:19;;;;;;;10.15;6.30;;;7.00;97.30;;;;;;5068238;28;20231;-72
2021/03/31 06:23:59;;;;;;;10.15;5.15;;;7.10;97.40;;;;;;5068720;28;20574;-73
2021/03/31 06:26:30;;;;;;;8.27;6.00;;;7.20;97.80;;;;;;5068437;28;20208;-73
2021/03/31 06:29:00;;;;;;;7.90;6.60;;;7.30;97.50;;;;;;5071073;28;20682;-72
2021/03/31 06:31:29;;;;;;;9.20;6.55;;;7.40;97.50;;;;;;5072162;28;20216;-72
2021/03/31 06:33:56;;;;;;;10.77;5.72;;;7.60;97.40;;;;;;5075037;28;20203;-72
2021/03/31 06:36:34;;;;;;;9.48;6.82;;;7.80;97.80;;;;;;5088665;28;20611;-72
2021/03/31 06:39:01;;;;;;;10.52;6.30;;;7.90;97.40;;;;;;5081839;28;20192;-72
2021/03/31 06:41:29;;;;;;;9.70;7.07;;;8.10;97.20;;;;;;5083876;28;20765;-72
2021/03/31 06:44:10;;;;;;;9.48;6.78;;;8.30;97.50;;;;;;5080537;28;20207;-72
2021/03/31 06:46:47;;;;;;;13.10;7.22;;;8.50;97.90;;;;;;5072220;28;20216;-72
2021/03/31 06:49:13;;;;;;;12.23;7.30;;;8.60;98.30;;;;;;5072264;22;20233;-74
2021/03/31 06:51:40;;;;;;;10.35;8.20;;;8.80;98.40;;;;;;5032268;28;20213;-72
2021/03/31 06:54:14;;;;;;;10.52;6.97;;;8.90;98.30;;;;;;5031813;28;20205;-73
2021/03/31 06:56:44;;;;;;;8.73;6.50;;;9.10;98.60;;;;;;5032281;28;20205;-73
2021/03/31 06:59:11;;;;;;;9.75;6.32;;;9.20;98.60;;;;;;5031615;28;20213;-73
2021/03/31 07:01:39;;;;;;;9.18;6.85;;;9.40;98.90;;;;;;5031748;28;20594;-73
2021/03/31 07:04:06;;;;;;;9.38;6.30;;;9.50;98.60;;;;;;5031854;28;20375;-72
2021/03/31 07:06:33;;;;;;;8.90;6.75;;;9.70;98.30;;;;;;5031777;28;20244;-73
2021/03/31 07:08:59;;;;;;;9.48;6.72;;;9.90;98.30;;;;;;5031439;28;20611;-73
2021/03/31 07:11:36;;;;;;;9.65;6.72;;;10.10;96.70;;;;;;5031364;28;20234;-72
2021/03/31 07:14:05;;;;;;;9.18;6.70;;;10.30;96.00;;;;;;5031943;28;20212;-73
2021/03/31 07:16:32;;;;;;;8.80;5.80;;;10.50;96.10;;;;;;5031390;28;20276;-72
2021/03/31 07:19:00;;;;;;;7.38;6.40;;;10.70;95.70;;;;;;5031524;28;20208;-73
2021/03/31 07:21:26;;;;;;;8.73;6.33;;;10.90;95.80;;;;;;5031484;28;20789;-73
2021/03/31 07:23:53;;;;;;;6.87;5.60;;;11.10;95.30;;;;;;5031543;28;20461;-73
2021/03/31 07:26:20;;;;;;;6.95;6.03;;;11.40;94.60;;;;;;5031658;28;20460;-73
2021/03/31 07:28:49;;;;;;;8.67;5.70;;;11.60;94.40;;;;;;5030861;28;20244;-73
2021/03/31 07:31:21;;;;;;;8.63;5.70;;;11.90;94.10;;;;;;5031323;28;20873;-73
2021/03/31 07:33:54;;;;;;;9.40;5.90;;;12.20;93.50;;;;;;5031299;28;20466;-73
2021/03/31 07:36:21;;;;;;;8.27;5.53;;;12.50;92.80;;;;;;5031295;28;20479;-73
2021/03/31 07:38:48;;;;;;;9.03;5.87;;;12.90;92.40;;;;;;5030885;28;20902;-74
2021/03/31 07:41:15;;;;;;;6.87;5.30;;;13.40;92.00;;;;;;5030513;28;20491;-72
2021/03/31 07:43:45;;;;;;;9.00;6.00;;;13.90;91.20;;;;;;5031050;28;20471;-73
2021/03/31 07:46:15;;;;;;;9.83;6.10;;;14.40;90.60;;;;;;5030889;28;20464;-73
2021/03/31 07:48:44;;;;;;;7.00;5.60;;;15.00;90.20;;;;;;5030554;28;20472;-73
2021/03/31 07:51:15;;;;;;;5.30;4.80;;;15.60;88.20;;;;;;5030987;28;20499;-73
2021/03/31 07:53:43;;;;;;;7.87;6.17;;;16.30;86.60;;;;;;5035873;28;21027;-73
2021/03/31 07:56:14;;;;;;;8.43;5.97;;;16.90;85.10;;;;;;5049747;28;20463;-74
2021/03/31 07:58:41;;;;;;;7.30;5.67;;;17.40;81.50;;;;;;5049641;28;20452;-73
2021/03/31 08:01:10;;;;;;;7.00;5.87;;;17.90;80.40;;;;;;5050278;28;20570;-73
2021/03/31 08:03:39;;;;;;;8.67;6.27;;;18.50;80.40;;;;;;5048013;28;20499;-73
2021/03/31 08:06:12;;;;;;;8.17;6.97;;;18.90;76.60;;;;;;5050636;28;20513;-73
2021/03/31 08:08:58;;;;;;;8.50;6.07;;;19.70;75.60;;;;;;5049806;28;20546;-73
2021/03/31 08:11:50;;;;;;;7.53;5.40;;;20.40;76.00;;;;;;5049875;28;20475;-73
2021/03/31 08:14:19;;;;;;;8.03;6.33;;;21.20;72.90;;;;;;5047415;28;20456;-73
2021/03/31 08:16:48;;;;;;;7.43;5.67;;;21.70;66.80;;;;;;5050815;28;20534;-73
2021/03/31 08:19:16;;;;;;;8.83;5.73;;;22.20;67.80;;;;;;5049072;28;20460;-73
2021/03/31 08:21:44;;;;;;;7.00;5.97;;;22.80;68.80;;;;;;5049655;28;20542;-74
2021/03/31 08:24:12;;;;;;;13.37;7.40;;;23.10;68.50;;;;;;5050024;28;20875;-74
2021/03/31 08:26:41;;;;;;;8.20;5.80;;;23.40;68.40;;;;;;5049070;28;20962;-73
2021/03/31 08:29:10;;;;;;;6.93;5.60;;;23.60;67.20;;;;;;5049709;28;20474;-74
2021/03/31 08:31:38;;;;;;;7.93;6.10;;;24.00;64.70;;;;;;5049429;28;21012;-74
2021/03/31 08:34:05;;;;;;;8.47;5.87;;;24.70;62.10;;;;;;5049978;28;20455;-74
2021/03/31 08:36:31;;;;;;;8.77;6.03;;;25.20;57.70;;;;;;5049508;28;20478;-74
2021/03/31 08:38:59;;;;;;;6.47;5.60;;;25.80;58.10;;;;;;5050685;28;20463;-74
2021/03/31 08:41:28;;;;;;;6.43;5.80;;;26.30;57.90;;;;;;5049218;28;20486;-74
2021/03/31 08:44:11;;;;;;;9.80;5.10;;;26.80;55.40;;;;;;5053142;28;20459;-74
2021/03/31 08:46:40;;;;;;;9.10;5.50;;;27.50;55.80;;;;;;5050448;28;20877;-73
2021/03/31 08:49:06;;;;;;;6.80;5.60;;;28.20;54.80;;;;;;5051015;28;20486;-74
2021/03/31 08:51:40;;;;;;;6.77;6.13;;;28.40;54.70;;;;;;5049369;28;20490;-74
2021/03/31 08:54:07;;;;;;;7.13;5.33;;;28.60;54.30;;;;;;5049852;28;20459;-74
2021/03/31 08:56:33;;;;;;;6.70;5.07;;;28.60;54.30;;;;;;5049620;28;20460;-74
2021/03/31 08:58:59;;;;;;;8.27;5.97;;;29.10;53.20;;;;;;5049335;28;20463;-74
2021/03/31 09:01:27;;;;;;;6.47;5.50;;;29.30;52.50;;;;;;5037825;28;20530;-74
2021/03/31 09:04:13;;;;;;;6.23;5.47;;;29.70;53.90;;;;;;5029798;28;20466;-74
2021/03/31 09:06:39;;;;;;;5.80;5.17;;;29.70;51.20;;;;;;5029614;28;20477;-74
2021/03/31 09:09:07;;;;;;;7.17;5.27;;;29.70;52.30;;;;;;5028826;28;20508;-74
2021/03/31 09:11:33;;;;;;;6.70;5.03;;;29.90;52.30;;;;;;5029393;28;20490;-74
2021/03/31 09:14:18;;;;;;;5.63;4.70;;;30.10;50.70;;;;;;5030048;28;20475;-74
2021/03/31 09:16:52;;;;;;;7.43;5.40;;;30.10;52.00;;;;;;5044190;28;20457;-74
2021/03/31 09:19:18;;;;;;;5.90;5.30;;;29.90;51.50;;;;;;5048367;28;20446;-74
2021/03/31 09:21:44;;;;;;;7.50;5.40;;;30.00;52.00;;;;;;5048758;28;20470;-74
2021/03/31 09:24:15;;;;;;;5.87;5.27;;;30.30;51.80;;;;;;5048987;28;20527;-74
2021/03/31 09:26:43;;;;;;;6.70;5.63;;;30.80;51.60;;;;;;5048763;28;20520;-74
2021/03/31 09:29:16;;;;;;;7.00;5.53;;;31.20;48.60;;;;;;5048684;28;20483;-74
2021/03/31 09:31:44;;;;;;;9.97;6.67;;;31.50;50.30;;;;;;5048745;28;20490;-74
2021/03/31 09:34:11;;;;;;;9.60;6.30;;;31.50;50.40;;;;;;5031010;28;20565;-74
2021/03/31 09:36:37;;;;;;;9.73;5.90;;;31.30;50.30;;;;;;5029028;28;20962;-74
2021/03/31 09:39:06;;;;;;;9.10;6.93;;;31.50;50.00;;;;;;5028761;28;20461;-74
2021/03/31 09:41:34;;;;;;;13.90;7.90;;;32.00;51.20;;;;;;5028811;28;20492;-75
2021/03/31 09:44:00;;;;;;;10.70;7.13;;;32.20;49.70;;;;;;5028799;28;20471;-74
2021/03/31 09:46:31;;;;;;;10.13;7.20;;;31.50;50.20;;;;;;5029210;28;20465;-74
2021/03/31 09:48:58;;;;;;;11.20;7.13;;;31.10;50.50;;;;;;5028493;28;20501;-74
2021/03/31 09:51:25;;;;;;;10.13;8.00;;;31.10;51.10;;;;;;5032889;28;20476;-74
2021/03/31 09:53:52;;;;;;;9.33;7.40;;;31.10;50.60;;;;;;5048019;28;20459;-74
2021/03/31 09:56:19;;;;;;;11.23;7.47;;;30.80;50.40;;;;;;5048042;28;20461;-73
2021/03/31 09:58:48;;;;;;;8.93;7.47;;;30.80;50.60;;;;;;5047849;28;20964;-74
2021/03/31 10:01:16;;;;;;;9.10;6.93;;;31.10;51.20;;;;;;5048265;28;20483;-74
2021/03/31 10:03:44;;;;;;;11.40;6.93;;;31.70;51.20;;;;;;5048314;28;20461;-74
2021/03/31 10:06:21;;;;;;;8.50;7.50;;;31.80;50.40;;;;;;5045368;28;20465;-74
2021/03/31 10:08:48;;;;;;;9.80;7.13;;;32.00;49.30;;;;;;5047658;28;20484;-74
2021/03/31 10:11:33;;;;;;;9.07;6.47;;;32.40;48.60;;;;;;5047630;28;20474;-74
2021/03/31 10:14:02;;;;;;;9.53;6.77;;;33.10;47.40;;;;;;5046392;28;20522;-74
2021/03/31 10:16:36;;;;;;;13.97;6.70;;;32.60;48.00;;;;;;5047584;28;20530;-74
2021/03/31 10:19:07;;;;;;;8.50;6.40;;;32.60;48.00;;;;;;5047142;28;20456;-74
2021/03/31 10:21:36;;;;;;;12.70;7.23;;;33.00;49.30;;;;;;5046935;28;20755;-74
2021/03/31 10:24:04;;;;;;;7.40;6.30;;;33.30;49.30;;;;;;5047953;28;20463;-74
2021/03/31 10:26:32;;;;;;;7.83;7.13;;;33.60;47.30;;;;;;5048023;28;20461;-74
2021/03/31 10:28:59;;;;;;;8.43;6.80;;;33.40;46.70;;;;;;5047391;28;20503;-74
2021/03/31 10:31:31;;;;;;;10.23;5.73;;;33.30;48.00;;;;;;5047868;28;20519;-74
2021/03/31 10:33:58;;;;;;;7.60;6.80;;;33.80;47.80;;;;;;5049018;28;20458;-74
2021/03/31 10:36:48;;;;;;;9.63;7.40;;;34.30;47.00;;;;;;5049147;28;20468;-74
2021/03/31 10:50:48;;;;;;;7.27;6.53;;;35.80;45.60;;;;;;5047443;28;20487;-74
2021/03/31 10:53:14;;;;;;;9.20;6.47;;;35.90;45.60;;;;;;5048241;28;20520;-74
2021/03/31 10:55:43;;;;;;;7.97;7.10;;;36.20;45.00;;;;;;5047399;28;20464;-74
2021/03/31 10:58:09;;;;;;;10.83;7.30;;;36.40;42.80;;;;;;5047947;28;20542;-74
2021/03/31 11:00:36;;;;;;;8.10;6.10;;;36.30;43.80;;;;;;5047236;28;20475;-74
2021/03/31 11:03:03;;;;;;;7.10;6.40;;;36.20;44.10;;;;;;5047553;28;20839;-74
2021/03/31 11:05:30;;;;;;;9.70;6.03;;;36.30;45.00;;;;;;5047511;28;20566;-74
2021/03/31 11:07:57;;;;;;;7.00;6.30;;;36.50;43.30;;;;;;5047615;28;20465;-74
2021/03/31 11:10:23;;;;;;;7.73;6.20;;;36.30;43.60;;;;;;5046956;28;20565;-74
2021/03/31 11:12:49;;;;;;;8.13;6.23;;;36.70;44.30;;;;;;5048129;28;21353;-74
2021/03/31 11:15:17;;;;;;;9.50;6.30;;;36.40;42.90;;;;;;5048744;28;20492;-75
2021/03/31 11:17:51;;;;;;;8.70;7.80;;;36.40;45.70;;;;;;5051651;28;20548;-74
2021/03/31 11:20:32;;;;;;;8.23;7.40;;;36.50;41.20;;;;;;5050779;28;20523;-74
2021/03/31 11:25:49;;;;;;;8.57;6.90;;;35.90;42.40;;;;;;5051215;28;20442;-74
2021/03/31 11:28:16;;;;;;;12.17;7.53;;;35.10;43.50;;;;;;5050933;28;20455;-74
2021/03/31 11:30:43;;;;;;;7.60;6.90;;;35.30;43.50;;;;;;5050420;28;20494;-74
2021/03/31 11:33:09;;;;;;;9.00;8.20;;;35.90;42.20;;;;;;5051223;28;20459;-74
2021/03/31 11:35:36;;;;;;;8.30;7.30;;;35.70;42.80;;;;;;5050840;28;20965;-75
2021/03/31 11:38:03;;;;;;;10.63;7.10;;;36.10;43.90;;;;;;5051112;28;20467;-74
2021/03/31 11:40:29;;;;;;;7.60;6.90;;;36.30;41.80;;;;;;5049899;28;20516;-74
2021/03/31 11:42:56;;;;;;;7.50;6.10;;;36.20;43.80;;;;;;5050674;28;21044;-74
2021/03/31 11:45:22;;;;;;;8.67;7.80;;;35.90;43.10;;;;;;5050688;28;20963;-74
2021/03/31 11:47:48;;;;;;;9.07;7.00;;;35.40;41.70;;;;;;5050818;28;20461;-75
2021/03/31 11:50:15;;;;;;;9.07;6.97;;;35.70;42.70;;;;;;5049850;28;20868;-74
2021/03/31 11:52:42;;;;;;;7.80;7.00;;;36.20;42.80;;;;;;5050641;28;20455;-74
2021/03/31 11:55:09;;;;;;;7.83;7.03;;;36.60;41.90;;;;;;5050583;28;20460;-74
2021/03/31 11:57:35;;;;;;;7.90;7.20;;;36.60;42.10;;;;;;5050289;28;20472;-74
2021/03/31 12:00:03;;;;;;;8.07;7.37;;;36.20;43.30;;;;;;5050395;28;20459;-74
2021/03/31 12:02:29;;;;;;;8.77;7.87;;;36.40;41.50;;;;;;5049939;28;20494;-74
2021/03/31 12:04:56;;;;;;;10.23;8.20;;;36.10;42.60;;;;;;5050868;28;20474;-74
2021/03/31 12:07:23;;;;;;;13.10;8.83;;;35.60;42.30;;;;;;5049766;28;20546;-74
2021/03/31 12:09:50;;;;;;;11.60;8.70;;;36.20;42.20;;;;;;5048833;28;20525;-74
2021/03/31 12:12:16;;;;;;;10.90;8.70;;;36.20;41.60;;;;;;5050187;28;20482;-74
2021/03/31 12:14:43;;;;;;;9.10;8.20;;;35.70;41.40;;;;;;5050081;28;20463;-74
2021/03/31 12:17:09;;;;;;;8.33;7.53;;;35.80;43.20;;;;;;5050447;28;20463;-74
2021/03/31 12:19:36;;;;;;;10.10;8.90;;;36.20;40.70;;;;;;5049321;28;20495;-74
2021/03/31 12:22:03;;;;;;;9.47;8.50;;;36.70;41.70;;;;;;5050271;28;20571;-74
2021/03/31 12:24:29;;;;;;;9.17;8.27;;;36.30;41.00;;;;;;5049922;28;20466;-75
2021/03/31 12:27:02;;;;;;;8.97;8.10;;;36.40;41.40;;;;;;5050622;28;20533;-74
2021/03/31 12:29:28;;;;;;;11.30;8.90;;;35.80;42.40;;;;;;5049314;28;20484;-74
2021/03/31 12:31:55;;;;;;;10.73;7.97;;;36.00;42.50;;;;;;5049769;28;20545;-74
2021/03/31 12:34:21;;;;;;;12.20;10.27;;;36.10;41.30;;;;;;5050332;28;20460;-74
2021/03/31 12:36:47;;;;;;;11.60;9.70;;;35.80;41.30;;;;;;5050558;28;20460;-74
2021/03/31 12:39:13;;;;;;;10.50;9.43;;;35.70;39.70;;;;;;5047613;28;20459;-74
2021/03/31 12:41:40;;;;;;;10.13;9.10;;;35.80;41.60;;;;;;5048381;28;20472;-74
2021/03/31 12:44:07;;;;;;;10.80;9.10;;;35.80;41.70;;;;;;5049769;28;20878;-74
2021/03/31 12:46:34;;;;;;;9.23;8.33;;;35.40;41.90;;;;;;5048821;28;20966;-74
2021/03/31 12:49:31;;;;;;;11.17;9.23;;;35.80;41.80;;;;;;5075219;22;20489;-94
2021/03/31 12:55:19;;;;;;;10.53;9.53;;;35.30;41.20;;;;;;5046147;28;20451;-93
2021/03/31 12:57:46;;;;;;;10.17;8.63;;;35.00;42.60;;;;;;5049057;28;20461;-93
2021/03/31 13:00:19;;;;;;;9.93;8.93;;;35.10;42.60;;;;;;5050701;28;20487;-92
2021/03/31 13:09:24;;;;;;;12.93;10.53;;;35.10;42.40;;;;;;5031273;22;21000;-72
2021/03/31 13:11:51;;;;;;;10.63;9.10;;;35.10;40.50;;;;;;5069128;28;20470;-72
2021/03/31 13:14:37;;;;;;;11.73;8.00;;;35.10;41.20;;;;;;5069422;28;20463;-72
2021/03/31 13:17:06;;;;;;;8.90;8.10;;;34.80;42.50;;;;;;5069546;28;20466;-72
2021/03/31 13:22:24;;;;;;;10.40;8.90;;;34.70;40.60;;;;;;5051485;28;20463;-72
2021/03/31 13:24:59;;;;;;;8.87;7.93;;;34.70;42.60;;;;;;5066358;28;21041;-72